Latest  Newer  Older  Last 2 hours slideshow  Last 24 hours slideshow  Refresh every 5 minutes 
Current image  Latest image  Rain/snow radar  Cloud coverage sat images 

All time is UTC (add 2 hours to UTC in wintertime, 3 hours to UTC in DST for Latvia local time)

2019/11/14 11:20 EVRA 141120Z 18012KT 9999 -RA FEW010 SCT013 OVC043 12/10 Q1009 R18/290195 NOSIG
2019/11/14 11:20 EVLA 141120Z AUTO 25011KT 9999 FEW011/// BKN018/// OVC021/// 08/06 Q1010
2019/11/14 11:20 EVVA 141120Z AUTO 25015KT 5000 BR FEW005 BKN010 OVC022 08/08 Q1008
2019/11/14 11:20 EYKA 141120Z 26006KT 210V290 5000 -RA BR BKN006 OVC016 10/09 Q1012 R08/290095
2019/11/14 11:20 EYPA 141120Z 27005KT 200V340 9999 OVC018 09/06 Q1011 R19/1///95
2019/11/14 11:20 EYSA 141120Z 21009KT 9999 SCT012 OVC030 09/07 Q1011 R14L/29//95 R14R/29//95 GRN TEMPO FEW013 OVC030 BLU
2019/11/14 11:20 EYVI 141120Z 15010KT 9000 OVC009 10/09 Q1013 R19/2///95 NOSIG
2019/11/14 10:50 EEKA 141050Z 16013KT 9999 FEW014 BKN027 11/09 Q1002
2019/11/14 10:50 EEKE 141050Z 21018KT 9999 FEW016 OVC020 10/08 Q1004
2019/11/14 10:50 EEPU 141050Z 18011G23KT 130V220 8000 BKN/// 12/10 Q1006
2019/11/14 11:20 EETN 141120Z 18011KT 160V220 9000 BKN014 OVC022 11/09 Q1005 R08/290195 NOSIG
2019/11/14 10:50 EETU 141050Z 17012KT 9999 BKN017 11/08 Q1009
   RIGA AIRPORT     EVRA               56 55N  023 58E   10   X     T          6 LV
   LIEPAJA INTL     EVLA        26406  56 31N  021 06E    4   X                8 LV
   VENTPILS         EVVA               57 21N  021 33E    6   X                8 LV
   KAUNAS           EYKA               54 54N  023 55E   77   X     T          6 LT
   PALANGA INTL     EYPA               55 55N  021 03E   10   X                6 LT
   SIAULIAI INTL    EYSA               55 54N  023 24E  135   X     T          6 LT
   VILNIUS INTL     EYVI        26730  54 38N  025 17E  197   X     T          6 LT
   KARDLA           EEKA        26116  58 59N  022 50E    4   X                8 EE
   KURESSAARE       EEKE               58 14N  022 31E    4   X                8 EE
   PARNU            EEPU               58 25N  024 28E   14   X                8 EE
   TALLINN          EETN        26038  59 24N  024 49E   40   X     T          8 EE
   TARTU            EETU               58 19N  026 41E   67   X                8 EE